Time;durP1;ratioP1;P1;durP2;ratioP2;P2;SDS_P1;SDS_P2;PMS_P1;PMS_P2;Temp;Humidity;BMP_temperature;BMP_pressure;BME280_temperature;BME280_humidity;BME280_pressure;Samples;Min_cycle;Max_cycle;Signal;HPM_P1;HPM_P2
2023/12/30 00:00:18;;;;;;;1.07;0.90;;;9.50;99.90;;;;;;5089483;28;20489;-73
2023/12/30 00:02:44;;;;;;;6.10;0.90;;;9.50;99.90;;;;;;5089258;28;20515;-73
2023/12/30 00:05:09;;;;;;;1.47;1.10;;;9.60;99.90;;;;;;5089409;28;20193;-74
2023/12/30 00:07:35;;;;;;;1.00;0.90;;;9.40;99.90;;;;;;5089132;28;20235;-74
2023/12/30 00:10:00;;;;;;;3.23;1.30;;;9.50;99.90;;;;;;5088077;28;20181;-73
2023/12/30 00:12:26;;;;;;;1.60;1.40;;;9.50;99.90;;;;;;5087812;28;20189;-74
2023/12/30 00:14:52;;;;;;;2.63;1.30;;;9.50;99.90;;;;;;5089263;28;20220;-74
2023/12/30 00:17:17;;;;;;;2.03;1.13;;;9.50;99.90;;;;;;5087717;28;20191;-73
2023/12/30 00:19:45;;;;;;;1.80;1.07;;;9.50;99.90;;;;;;5087549;28;20188;-74
2023/12/30 00:22:11;;;;;;;1.43;1.30;;;9.40;99.90;;;;;;5086543;28;20172;-73
2023/12/30 00:24:36;;;;;;;2.70;1.27;;;9.40;99.90;;;;;;5087465;28;20496;-73
2023/12/30 00:27:02;;;;;;;1.73;1.27;;;9.40;99.90;;;;;;5088855;28;21105;-73
2023/12/30 00:29:28;;;;;;;1.70;1.20;;;9.50;99.90;;;;;;5087422;28;20214;-74
2023/12/30 00:31:53;;;;;;;1.30;1.00;;;9.50;99.90;;;;;;5087600;28;20255;-74
2023/12/30 00:34:19;;;;;;;1.63;1.20;;;9.40;99.90;;;;;;5088667;28;20185;-73
2023/12/30 00:36:44;;;;;;;1.20;0.80;;;9.40;99.90;;;;;;5070323;28;20625;-74
2023/12/30 00:39:10;;;;;;;1.10;0.80;;;9.40;99.90;;;;;;5087328;28;20262;-73
2023/12/30 00:41:36;;;;;;;1.00;0.87;;;9.30;99.90;;;;;;5087467;28;20185;-74
2023/12/30 00:44:02;;;;;;;1.03;0.93;;;9.30;99.90;;;;;;5088802;28;20409;-74
2023/12/30 00:46:27;;;;;;;2.60;1.10;;;9.30;99.90;;;;;;5088976;28;20202;-74
2023/12/30 00:48:53;;;;;;;1.33;0.93;;;9.30;99.90;;;;;;5088696;28;20214;-73
2023/12/30 00:51:19;;;;;;;1.83;1.20;;;9.30;99.90;;;;;;5087219;28;20672;-74
2023/12/30 00:53:44;;;;;;;2.00;1.40;;;9.20;99.90;;;;;;5087059;28;20193;-74
2023/12/30 00:56:10;;;;;;;1.57;1.00;;;9.20;99.90;;;;;;5088637;28;20199;-73
2023/12/30 00:58:35;;;;;;;2.17;0.97;;;9.20;99.90;;;;;;5070293;28;20608;-75
2023/12/30 01:01:01;;;;;;;2.60;1.20;;;9.20;99.90;;;;;;5088480;28;20178;-75
2023/12/30 01:03:26;;;;;;;1.77;0.93;;;9.20;99.90;;;;;;5087073;28;20182;-74
2023/12/30 01:05:55;;;;;;;0.90;0.70;;;9.20;99.90;;;;;;5088630;28;20214;-74
2023/12/30 01:08:20;;;;;;;2.33;1.20;;;9.20;99.90;;;;;;5086910;28;20234;-75
2023/12/30 01:10:46;;;;;;;2.60;1.13;;;9.20;99.90;;;;;;5086983;28;20457;-74
2023/12/30 01:13:12;;;;;;;1.30;1.20;;;9.20;99.90;;;;;;5088234;28;20233;-74
2023/12/30 01:15:37;;;;;;;1.30;0.80;;;9.10;99.90;;;;;;5086779;28;20202;-75
2023/12/30 01:18:03;;;;;;;1.50;0.87;;;9.10;99.90;;;;;;5088769;28;20649;-74
2023/12/30 01:20:30;;;;;;;2.13;1.00;;;9.10;99.90;;;;;;5087245;28;20182;-75
2023/12/30 01:22:55;;;;;;;2.33;1.23;;;9.10;99.90;;;;;;5088189;28;20458;-75
2023/12/30 01:25:21;;;;;;;2.30;1.20;;;9.00;99.90;;;;;;5088338;28;20451;-75
2023/12/30 01:27:47;;;;;;;1.20;1.00;;;9.10;99.90;;;;;;5088326;28;20202;-75
2023/12/30 01:30:12;;;;;;;3.27;1.97;;;9.00;99.90;;;;;;5087389;28;20198;-74
2023/12/30 01:32:38;;;;;;;1.03;0.93;;;9.00;99.90;;;;;;5089964;28;20188;-74
2023/12/30 01:35:04;;;;;;;1.87;0.83;;;9.00;99.90;;;;;;5093056;28;20229;-75
2023/12/30 01:37:30;;;;;;;1.10;0.87;;;9.00;99.90;;;;;;5092797;28;20196;-75
2023/12/30 01:39:56;;;;;;;2.90;1.20;;;9.00;99.90;;;;;;5074198;28;20478;-75
2023/12/30 01:42:21;;;;;;;2.00;1.20;;;9.10;99.90;;;;;;5092292;28;20186;-75
2023/12/30 01:44:47;;;;;;;6.20;1.10;;;9.10;99.90;;;;;;5092210;28;20180;-75
2023/12/30 01:47:13;;;;;;;1.40;1.10;;;9.20;99.90;;;;;;5092047;28;20230;-74
2023/12/30 01:49:39;;;;;;;1.70;1.00;;;9.10;99.90;;;;;;5090784;28;20220;-75
2023/12/30 01:52:05;;;;;;;2.40;1.17;;;9.30;99.90;;;;;;5091909;28;20179;-74
2023/12/30 01:54:32;;;;;;;1.37;1.10;;;9.20;99.90;;;;;;5090429;28;21271;-73
2023/12/30 01:56:59;;;;;;;1.63;0.73;;;9.30;99.90;;;;;;5091737;28;20440;-74
2023/12/30 01:59:29;;;;;;;1.50;0.90;;;9.20;99.90;;;;;;5091912;28;20478;-74
2023/12/30 02:01:55;;;;;;;1.83;1.03;;;9.20;99.90;;;;;;5090261;28;20416;-74
2023/12/30 02:04:22;;;;;;;2.90;1.10;;;9.30;99.90;;;;;;5091812;28;20796;-74
2023/12/30 02:06:48;;;;;;;2.20;1.07;;;9.20;99.90;;;;;;5089979;28;20452;-74
2023/12/30 02:09:13;;;;;;;1.20;0.90;;;9.20;99.90;;;;;;5091480;28;20468;-74
2023/12/30 02:11:39;;;;;;;4.20;1.20;;;9.20;99.90;;;;;;5091552;28;20193;-74
2023/12/30 02:14:22;;;;;;;1.10;1.00;;;9.20;99.90;;;;;;5091327;28;20420;-74
2023/12/30 02:16:47;;;;;;;1.30;1.03;;;9.20;99.90;;;;;;5091280;28;20864;-74
2023/12/30 02:19:13;;;;;;;1.70;1.10;;;9.20;99.90;;;;;;5089906;28;20425;-74
2023/12/30 02:21:38;;;;;;;1.43;1.10;;;9.20;99.90;;;;;;5089773;28;20558;-74
2023/12/30 02:24:04;;;;;;;1.23;1.13;;;9.30;99.90;;;;;;5089698;28;20190;-73
2023/12/30 02:26:30;;;;;;;1.40;1.10;;;9.30;99.90;;;;;;5091120;28;20198;-74
2023/12/30 02:28:56;;;;;;;1.20;1.00;;;9.30;99.90;;;;;;5089472;28;20214;-74
2023/12/30 02:31:21;;;;;;;1.87;1.20;;;9.30;99.90;;;;;;5089734;28;20773;-74
2023/12/30 02:33:47;;;;;;;1.03;0.93;;;9.40;99.90;;;;;;5072697;28;20183;-74
2023/12/30 02:36:13;;;;;;;1.80;1.20;;;9.20;99.90;;;;;;5090910;28;20701;-74
2023/12/30 02:38:38;;;;;;;1.33;1.10;;;9.30;99.90;;;;;;5089630;28;20182;-73
2023/12/30 02:41:04;;;;;;;1.37;1.10;;;9.30;99.90;;;;;;5089357;28;20214;-73
2023/12/30 02:43:36;;;;;;;1.40;1.30;;;9.30;99.90;;;;;;5091208;28;20569;-74
2023/12/30 02:46:02;;;;;;;2.90;1.03;;;9.30;99.90;;;;;;5091330;28;20643;-74
2023/12/30 02:48:27;;;;;;;1.10;0.80;;;9.30;99.90;;;;;;5089427;28;20551;-74
2023/12/30 02:50:53;;;;;;;1.07;0.83;;;9.30;99.90;;;;;;5072229;28;20494;-74
2023/12/30 02:53:18;;;;;;;1.20;1.10;;;9.40;99.90;;;;;;5089308;28;20269;-74
2023/12/30 02:55:44;;;;;;;0.93;0.83;;;9.40;99.90;;;;;;5088945;28;20202;-74
2023/12/30 02:58:09;;;;;;;1.37;0.90;;;9.30;99.90;;;;;;5088993;28;20179;-74
2023/12/30 03:00:35;;;;;;;2.27;0.90;;;9.40;99.90;;;;;;5089016;28;20621;-74
2023/12/30 03:03:01;;;;;;;1.30;0.80;;;9.30;99.90;;;;;;5088850;28;20209;-74
2023/12/30 03:05:27;;;;;;;1.57;1.03;;;9.30;99.90;;;;;;5072156;28;20190;-74
2023/12/30 03:07:53;;;;;;;1.40;1.10;;;9.30;99.90;;;;;;5090345;28;20206;-74
2023/12/30 03:10:18;;;;;;;1.20;0.80;;;9.30;99.90;;;;;;5088912;28;20511;-74
2023/12/30 03:12:44;;;;;;;1.17;0.90;;;9.30;99.90;;;;;;5090214;28;20179;-74
2023/12/30 03:15:10;;;;;;;2.33;0.93;;;9.20;99.90;;;;;;5072087;28;20178;-74
2023/12/30 03:17:35;;;;;;;2.40;1.17;;;9.20;99.90;;;;;;5090166;28;20291;-74
2023/12/30 03:20:03;;;;;;;1.23;0.90;;;9.20;99.90;;;;;;5088838;28;20185;-74
2023/12/30 03:22:29;;;;;;;2.10;0.97;;;9.20;99.90;;;;;;5088484;28;20182;-74
2023/12/30 03:24:55;;;;;;;0.93;0.83;;;9.20;99.90;;;;;;5090110;28;20797;-74
2023/12/30 03:27:20;;;;;;;3.83;0.80;;;9.20;99.90;;;;;;5089832;28;20448;-74
2023/12/30 03:29:46;;;;;;;2.33;0.83;;;9.30;99.90;;;;;;5090041;28;20524;-74
2023/12/30 03:32:12;;;;;;;2.47;0.80;;;9.00;99.90;;;;;;5088681;28;20179;-75
2023/12/30 03:34:37;;;;;;;1.77;1.07;;;9.10;99.90;;;;;;5090066;28;20699;-74
2023/12/30 03:37:03;;;;;;;1.53;0.77;;;9.10;99.90;;;;;;5088502;28;20211;-74
2023/12/30 03:39:28;;;;;;;1.40;0.80;;;9.10;99.90;;;;;;5088644;28;20281;-74
2023/12/30 03:41:54;;;;;;;1.00;0.90;;;9.10;99.90;;;;;;5088349;28;20539;-74
2023/12/30 03:44:20;;;;;;;1.93;0.80;;;9.30;99.90;;;;;;5088679;28;20192;-74
2023/12/30 03:46:45;;;;;;;1.10;0.67;;;9.10;99.90;;;;;;5090215;28;20217;-74
2023/12/30 03:49:11;;;;;;;1.90;0.80;;;9.10;99.90;;;;;;5090295;28;20629;-74
2023/12/30 03:51:36;;;;;;;1.97;0.80;;;9.10;99.90;;;;;;5072035;28;20191;-74
2023/12/30 03:54:02;;;;;;;2.30;1.30;;;9.10;99.90;;;;;;5090215;28;20178;-74
2023/12/30 03:56:27;;;;;;;3.20;0.80;;;9.10;99.90;;;;;;5088490;28;20232;-74
2023/12/30 03:58:54;;;;;;;2.73;0.70;;;9.10;99.90;;;;;;5088606;28;20186;-75
2023/12/30 04:01:20;;;;;;;0.80;0.60;;;9.10;99.90;;;;;;5088253;28;20274;-75
2023/12/30 04:03:45;;;;;;;1.97;1.10;;;9.10;99.90;;;;;;5089517;28;20987;-75
2023/12/30 04:06:20;;;;;;;1.43;0.83;;;9.10;99.90;;;;;;5087926;28;20459;-75
2023/12/30 04:08:45;;;;;;;1.57;0.73;;;9.10;99.90;;;;;;5087803;28;20685;-75
2023/12/30 04:11:11;;;;;;;2.00;0.80;;;9.10;99.90;;;;;;5089350;28;20416;-74
2023/12/30 04:13:37;;;;;;;5.10;0.70;;;9.10;99.90;;;;;;5089441;28;20202;-74
2023/12/30 04:16:02;;;;;;;5.10;0.90;;;9.10;99.90;;;;;;5087704;28;20789;-75
2023/12/30 04:18:28;;;;;;;1.67;0.70;;;9.10;99.90;;;;;;5089186;28;20612;-75
2023/12/30 04:20:53;;;;;;;1.10;0.63;;;9.10;99.90;;;;;;5089216;28;20240;-74
2023/12/30 04:23:19;;;;;;;2.00;0.60;;;9.10;99.90;;;;;;5089223;28;20209;-74
2023/12/30 04:25:45;;;;;;;1.73;0.70;;;9.20;99.90;;;;;;5087739;28;20230;-74
2023/12/30 04:28:10;;;;;;;1.27;0.63;;;8.90;99.90;;;;;;5088924;28;20214;-74
2023/12/30 04:30:36;;;;;;;0.93;0.63;;;8.90;99.90;;;;;;5087569;28;20185;-73
2023/12/30 04:33:01;;;;;;;1.97;0.63;;;8.80;99.90;;;;;;5088943;28;20527;-73
2023/12/30 04:35:27;;;;;;;2.63;0.80;;;8.80;99.90;;;;;;5070508;28;20194;-73
2023/12/30 04:37:52;;;;;;;3.43;1.10;;;8.60;99.90;;;;;;5089009;28;20219;-73
2023/12/30 04:40:18;;;;;;;1.70;0.80;;;8.50;99.90;;;;;;5087434;28;20189;-75
2023/12/30 04:42:44;;;;;;;3.60;0.73;;;8.40;99.90;;;;;;5053783;28;20549;-74
2023/12/30 04:45:12;;;;;;;1.43;0.77;;;8.40;99.90;;;;;;5086447;28;20227;-74
2023/12/30 04:47:39;;;;;;;1.87;1.20;;;8.40;99.90;;;;;;5069488;28;20235;-73
2023/12/30 04:50:05;;;;;;;2.00;0.57;;;8.40;99.90;;;;;;5086184;28;20420;-74
2023/12/30 04:52:30;;;;;;;4.53;0.50;;;8.50;99.90;;;;;;5086038;28;21274;-74
2023/12/30 04:54:56;;;;;;;2.60;0.60;;;8.50;99.90;;;;;;5085873;28;20504;-74
2023/12/30 04:57:22;;;;;;;6.13;0.77;;;8.50;99.90;;;;;;5087296;28;20674;-73
2023/12/30 04:59:47;;;;;;;2.60;0.90;;;8.50;99.90;;;;;;5085697;28;20213;-73
2023/12/30 05:02:13;;;;;;;5.33;0.80;;;8.50;99.90;;;;;;5068737;28;20568;-74
2023/12/30 05:04:42;;;;;;;2.57;0.60;;;8.50;99.90;;;;;;5087201;28;20186;-74
2023/12/30 05:07:07;;;;;;;3.70;0.70;;;8.50;99.90;;;;;;5086287;28;20214;-74
2023/12/30 05:09:35;;;;;;;3.20;0.90;;;8.40;99.90;;;;;;5073275;28;20460;-74
2023/12/30 05:12:00;;;;;;;1.80;0.70;;;8.40;99.90;;;;;;5090093;28;20198;-74
2023/12/30 05:14:26;;;;;;;2.93;0.70;;;8.40;99.90;;;;;;5073351;28;20463;-74
2023/12/30 05:16:52;;;;;;;5.53;0.97;;;8.50;99.90;;;;;;5091446;28;20201;-74
2023/12/30 05:19:17;;;;;;;1.63;0.67;;;8.50;99.90;;;;;;5091348;28;20269;-74
2023/12/30 05:21:43;;;;;;;2.17;0.83;;;8.50;99.90;;;;;;5072806;28;20199;-74
2023/12/30 05:24:09;;;;;;;1.00;0.63;;;8.50;99.90;;;;;;5089652;28;20190;-75
2023/12/30 05:26:34;;;;;;;4.20;0.60;;;8.40;99.90;;;;;;5091055;28;20202;-74
2023/12/30 05:29:00;;;;;;;3.57;0.93;;;8.50;99.90;;;;;;5090854;28;20470;-74
2023/12/30 05:31:25;;;;;;;1.27;0.60;;;8.60;99.90;;;;;;5089598;28;20615;-74
2023/12/30 05:33:51;;;;;;;5.77;0.63;;;8.50;99.90;;;;;;5055997;28;20178;-75
2023/12/30 05:36:16;;;;;;;2.93;0.77;;;8.50;99.90;;;;;;5090682;28;20763;-74
2023/12/30 05:38:42;;;;;;;3.00;0.83;;;8.60;99.90;;;;;;5091153;28;20209;-75
2023/12/30 05:41:08;;;;;;;1.27;0.50;;;8.60;99.90;;;;;;5089294;28;20212;-75
2023/12/30 05:43:33;;;;;;;1.63;0.70;;;8.60;99.90;;;;;;5072499;28;20205;-75
2023/12/30 05:45:59;;;;;;;3.00;0.60;;;8.60;99.90;;;;;;5089455;28;20213;-75
2023/12/30 05:48:27;;;;;;;2.03;0.57;;;8.60;99.90;;;;;;5089808;28;20203;-75
2023/12/30 05:50:52;;;;;;;2.50;0.50;;;8.60;99.90;;;;;;5089866;28;20183;-74
2023/12/30 05:53:18;;;;;;;1.17;0.60;;;8.60;99.90;;;;;;5091844;28;20472;-75
2023/12/30 05:55:43;;;;;;;1.73;0.50;;;8.60;99.90;;;;;;5091557;28;20217;-75
2023/12/30 05:58:09;;;;;;;0.90;0.60;;;8.60;99.90;;;;;;5091773;28;20603;-75
2023/12/30 06:00:35;;;;;;;1.80;0.77;;;8.60;99.90;;;;;;5073390;28;20283;-75
2023/12/30 06:03:00;;;;;;;2.93;0.83;;;8.60;99.90;;;;;;5090061;28;20182;-75
2023/12/30 06:05:26;;;;;;;2.73;1.70;;;8.60;99.90;;;;;;5089627;28;20191;-75
2023/12/30 06:07:51;;;;;;;5.80;2.67;;;8.60;99.90;;;;;;5072562;28;20210;-75
2023/12/30 06:10:19;;;;;;;6.50;2.60;;;8.50;99.90;;;;;;5090876;28;20548;-74
2023/12/30 06:12:45;;;;;;;4.20;1.50;;;8.60;99.90;;;;;;5089496;28;20195;-75
2023/12/30 06:15:10;;;;;;;1.03;0.80;;;8.60;99.90;;;;;;5089622;28;20436;-75
2023/12/30 06:17:36;;;;;;;1.47;0.80;;;8.50;99.90;;;;;;5090642;28;20198;-74
2023/12/30 06:20:01;;;;;;;3.27;0.80;;;8.40;99.90;;;;;;5089451;28;20271;-74
2023/12/30 06:22:27;;;;;;;1.23;0.70;;;8.40;99.90;;;;;;5089258;28;20182;-74
2023/12/30 06:24:53;;;;;;;3.73;0.87;;;8.40;99.90;;;;;;5090956;28;20179;-74
2023/12/30 06:27:20;;;;;;;3.47;1.23;;;8.40;99.90;;;;;;5072463;28;20289;-76
2023/12/30 06:29:47;;;;;;;1.40;0.90;;;8.50;99.90;;;;;;5090476;28;20262;-75
2023/12/30 06:32:12;;;;;;;1.80;0.70;;;8.50;99.90;;;;;;5090687;28;20429;-75
2023/12/30 06:34:38;;;;;;;3.90;0.70;;;8.50;99.90;;;;;;5090552;28;20416;-75
2023/12/30 06:37:03;;;;;;;2.93;0.97;;;8.50;99.90;;;;;;5090870;28;20217;-75
2023/12/30 06:39:29;;;;;;;2.50;0.80;;;8.50;99.90;;;;;;5089331;28;20186;-74
2023/12/30 06:41:59;;;;;;;3.13;0.80;;;8.50;99.90;;;;;;5089246;28;20668;-74
2023/12/30 06:44:25;;;;;;;3.50;0.77;;;8.50;99.90;;;;;;5088973;28;20191;-74
2023/12/30 06:46:51;;;;;;;1.33;0.70;;;8.60;99.90;;;;;;5088401;28;20452;-75
2023/12/30 06:49:17;;;;;;;1.73;0.70;;;8.70;99.90;;;;;;5090058;28;20831;-74
2023/12/30 06:51:43;;;;;;;3.70;0.90;;;8.60;99.90;;;;;;5071369;28;20405;-75
2023/12/30 06:54:09;;;;;;;1.80;0.73;;;8.60;99.90;;;;;;5088221;28;20753;-75
2023/12/30 06:56:37;;;;;;;2.20;0.80;;;8.60;99.90;;;;;;5089578;28;20190;-75
2023/12/30 06:59:02;;;;;;;2.90;0.70;;;8.60;99.90;;;;;;5088030;28;20186;-76
2023/12/30 07:01:28;;;;;;;2.77;1.40;;;8.60;99.90;;;;;;5087868;28;20420;-76
2023/12/30 07:03:55;;;;;;;3.20;1.63;;;8.60;99.90;;;;;;5089708;28;20273;-75
2023/12/30 07:06:20;;;;;;;3.77;1.07;;;8.60;99.90;;;;;;5089225;28;20201;-76
2023/12/30 07:08:46;;;;;;;1.47;0.83;;;8.60;99.90;;;;;;5089480;28;21010;-75
2023/12/30 07:11:12;;;;;;;3.43;0.90;;;8.50;99.90;;;;;;5087913;28;20420;-75
2023/12/30 07:13:37;;;;;;;1.40;0.90;;;8.50;99.90;;;;;;5089149;28;21014;-75
2023/12/30 07:16:03;;;;;;;2.10;0.80;;;8.50;99.90;;;;;;5087155;28;20208;-75
2023/12/30 07:18:29;;;;;;;4.07;0.70;;;8.60;99.90;;;;;;5087690;28;20193;-75
2023/12/30 07:20:54;;;;;;;9.40;2.33;;;8.60;99.90;;;;;;5087239;28;20186;-76
2023/12/30 07:23:20;;;;;;;2.10;0.90;;;8.60;99.90;;;;;;5088897;28;20278;-76
2023/12/30 07:25:47;;;;;;;3.37;1.50;;;8.70;99.90;;;;;;5087548;28;20206;-76
2023/12/30 07:28:13;;;;;;;6.47;2.10;;;8.60;99.90;;;;;;5088789;28;20217;-74
2023/12/30 07:30:39;;;;;;;2.97;1.00;;;8.50;99.90;;;;;;5088287;28;20413;-75
2023/12/30 07:33:04;;;;;;;2.70;1.00;;;8.50;99.90;;;;;;5087791;28;20416;-75
2023/12/30 07:35:30;;;;;;;1.20;1.10;;;8.60;99.90;;;;;;5088989;28;20661;-75
2023/12/30 07:37:56;;;;;;;1.37;1.00;;;8.60;99.90;;;;;;5087914;28;20187;-75
2023/12/30 07:40:22;;;;;;;6.07;1.10;;;8.60;99.90;;;;;;5087596;28;20728;-75
2023/12/30 07:42:48;;;;;;;1.87;0.87;;;8.70;99.90;;;;;;5087614;28;20428;-76
2023/12/30 07:45:14;;;;;;;3.63;0.90;;;8.60;99.90;;;;;;5087494;28;20417;-75
2023/12/30 07:47:39;;;;;;;1.10;1.00;;;8.60;99.90;;;;;;5087177;28;20939;-76
2023/12/30 07:50:06;;;;;;;0.90;0.70;;;8.60;99.90;;;;;;5087047;28;20386;-75
2023/12/30 07:52:31;;;;;;;1.00;0.70;;;8.60;99.90;;;;;;5086996;28;20185;-76
2023/12/30 07:54:57;;;;;;;5.37;0.90;;;8.60;99.90;;;;;;5086702;28;20424;-76
2023/12/30 07:57:22;;;;;;;1.63;1.07;;;8.60;99.90;;;;;;5070035;28;20190;-75
2023/12/30 07:59:49;;;;;;;2.03;0.90;;;8.80;99.90;;;;;;5086736;28;20195;-75
2023/12/30 08:02:15;;;;;;;1.13;0.70;;;8.70;99.90;;;;;;5086715;28;20936;-75
2023/12/30 08:04:44;;;;;;;1.43;0.50;;;8.70;99.90;;;;;;5088055;28;20431;-75
2023/12/30 08:07:10;;;;;;;0.90;0.73;;;8.70;99.90;;;;;;5088345;28;20209;-75
2023/12/30 08:09:37;;;;;;;1.53;0.80;;;8.80;99.90;;;;;;5086346;28;20468;-75
2023/12/30 08:12:04;;;;;;;4.87;0.90;;;8.90;99.90;;;;;;5087095;28;20424;-75
2023/12/30 08:14:30;;;;;;;1.20;0.83;;;8.90;99.90;;;;;;5087961;28;20915;-75
2023/12/30 08:16:55;;;;;;;3.30;0.97;;;8.90;99.90;;;;;;5069787;28;20436;-75
2023/12/30 08:19:21;;;;;;;3.37;0.97;;;8.90;99.90;;;;;;5086590;28;20912;-75
2023/12/30 08:21:46;;;;;;;0.90;0.73;;;8.90;99.90;;;;;;5086634;28;20188;-75
2023/12/30 08:24:14;;;;;;;2.30;0.70;;;8.90;99.90;;;;;;5086647;28;20194;-74
2023/12/30 08:26:40;;;;;;;1.87;0.60;;;8.90;99.90;;;;;;5087290;28;20205;-75
2023/12/30 08:29:08;;;;;;;1.00;0.77;;;8.80;99.90;;;;;;5088228;28;20839;-74
2023/12/30 08:31:35;;;;;;;1.13;1.03;;;8.90;99.90;;;;;;5087050;28;20189;-75
2023/12/30 08:34:00;;;;;;;1.13;0.50;;;9.00;99.90;;;;;;5088161;28;20412;-75
2023/12/30 08:36:28;;;;;;;3.77;2.20;;;9.00;99.90;;;;;;5088009;28;20464;-74
2023/12/30 08:38:54;;;;;;;1.90;0.80;;;9.00;99.90;;;;;;5086642;28;20191;-75
2023/12/30 08:41:24;;;;;;;3.80;0.90;;;9.00;99.90;;;;;;5086122;28;20422;-75
2023/12/30 08:43:52;;;;;;;1.10;0.70;;;9.10;99.90;;;;;;5085952;28;20935;-75
2023/12/30 08:46:18;;;;;;;0.80;0.60;;;9.10;99.90;;;;;;5086505;28;20951;-74
2023/12/30 08:48:44;;;;;;;1.00;0.70;;;9.20;99.90;;;;;;5068988;28;20476;-75
2023/12/30 08:51:12;;;;;;;1.20;0.67;;;9.20;99.90;;;;;;5085591;28;20429;-74
2023/12/30 08:53:37;;;;;;;1.50;0.83;;;9.40;99.90;;;;;;5085815;28;21024;-74
2023/12/30 08:56:03;;;;;;;3.73;0.80;;;9.50;99.90;;;;;;5085861;28;20531;-75
2023/12/30 08:58:29;;;;;;;5.23;1.00;;;10.00;99.90;;;;;;5069300;28;20206;-75
2023/12/30 09:00:54;;;;;;;1.83;0.60;;;10.60;99.90;;;;;;5087756;28;20189;-75
2023/12/30 09:03:20;;;;;;;3.30;0.90;;;10.90;99.90;;;;;;5087387;28;20190;-75
2023/12/30 09:05:46;;;;;;;2.50;0.70;;;11.00;99.90;;;;;;5086007;28;20207;-75
2023/12/30 09:08:11;;;;;;;1.13;0.60;;;10.90;99.90;;;;;;5087436;28;20218;-74
2023/12/30 09:10:38;;;;;;;1.83;0.60;;;10.90;99.90;;;;;;5086217;28;20189;-74
2023/12/30 09:13:04;;;;;;;1.73;1.00;;;11.10;99.90;;;;;;5088413;28;20243;-75
2023/12/30 09:15:30;;;;;;;1.40;0.70;;;11.10;99.90;;;;;;5092163;28;20447;-74
2023/12/30 09:17:57;;;;;;;1.00;0.67;;;11.00;99.90;;;;;;5090915;28;20189;-75
2023/12/30 09:20:22;;;;;;;4.33;0.50;;;10.90;99.90;;;;;;5087567;28;20182;-74
2023/12/30 09:22:48;;;;;;;1.10;0.57;;;10.90;99.90;;;;;;5087645;28;20428;-75
2023/12/30 09:25:14;;;;;;;1.00;0.60;;;11.10;99.90;;;;;;5052536;28;20188;-75
2023/12/30 09:27:39;;;;;;;2.20;0.63;;;11.40;99.90;;;;;;5087387;28;20186;-75
2023/12/30 09:30:06;;;;;;;1.27;0.57;;;11.60;99.90;;;;;;5087368;28;20205;-75
2023/12/30 09:32:31;;;;;;;0.90;0.60;;;11.60;99.90;;;;;;5085774;28;20690;-75
2023/12/30 09:34:58;;;;;;;1.77;0.60;;;11.70;99.90;;;;;;5087071;28;21054;-75
2023/12/30 09:37:24;;;;;;;4.13;0.70;;;12.30;99.90;;;;;;5085593;28;20252;-74
2023/12/30 09:39:51;;;;;;;2.50;2.30;;;12.60;99.90;;;;;;5087065;28;20920;-75
2023/12/30 09:42:16;;;;;;;2.70;1.20;;;14.00;99.90;;;;;;5085246;28;20252;-75
2023/12/30 09:44:43;;;;;;;1.00;0.70;;;15.20;99.90;;;;;;5089274;28;20435;-74
2023/12/30 09:47:11;;;;;;;0.90;0.60;;;16.30;99.90;;;;;;5087627;28;20264;-74
2023/12/30 09:49:37;;;;;;;1.97;0.67;;;17.10;99.90;;;;;;5087100;28;20495;-74
2023/12/30 09:52:06;;;;;;;1.17;0.57;;;17.70;99.90;;;;;;5086945;28;20419;-75
2023/12/30 09:54:35;;;;;;;2.37;0.80;;;17.30;98.80;;;;;;5089705;28;20413;-75
2023/12/30 09:57:02;;;;;;;1.30;0.67;;;17.00;99.80;;;;;;5089248;28;20434;-74
2023/12/30 09:59:30;;;;;;;1.67;0.80;;;16.50;99.90;;;;;;5090634;28;20409;-74
2023/12/30 10:01:56;;;;;;;1.20;0.80;;;15.80;99.90;;;;;;5090598;28;20412;-74
2023/12/30 10:04:21;;;;;;;2.30;0.80;;;15.70;99.90;;;;;;5089196;28;20420;-74
2023/12/30 10:06:49;;;;;;;2.13;0.97;;;15.60;99.90;;;;;;5090363;28;20482;-74
2023/12/30 10:09:16;;;;;;;1.00;0.80;;;14.90;99.90;;;;;;5090398;28;20636;-74
2023/12/30 10:11:44;;;;;;;1.80;0.70;;;14.40;99.90;;;;;;5090258;28;20501;-76
2023/12/30 10:14:10;;;;;;;1.10;0.80;;;14.10;99.90;;;;;;5090281;28;20416;-75
2023/12/30 10:16:36;;;;;;;2.10;0.60;;;14.50;99.90;;;;;;5088412;28;20813;-74
2023/12/30 10:19:01;;;;;;;3.00;1.27;;;15.30;99.90;;;;;;5090130;28;20552;-74
2023/12/30 10:21:28;;;;;;;2.07;0.70;;;15.90;99.90;;;;;;5088816;28;20428;-74
2023/12/30 10:23:54;;;;;;;1.10;0.70;;;17.90;99.90;;;;;;5071843;28;20183;-74
2023/12/30 10:26:21;;;;;;;2.40;0.80;;;18.80;95.80;;;;;;5090075;28;20854;-74
2023/12/30 10:28:47;;;;;;;3.03;0.97;;;20.40;94.30;;;;;;5091384;28;20541;-74
2023/12/30 10:31:16;;;;;;;2.17;0.60;;;21.70;88.80;;;;;;5089753;28;20470;-74
2023/12/30 10:33:42;;;;;;;1.00;0.80;;;22.90;82.40;;;;;;5089721;28;20412;-74
2023/12/30 10:36:08;;;;;;;1.07;0.80;;;23.70;79.50;;;;;;5089461;28;21051;-75
2023/12/30 10:38:35;;;;;;;1.63;0.70;;;24.70;74.70;;;;;;5089692;28;20192;-75
2023/12/30 10:41:01;;;;;;;1.10;0.70;;;23.90;69.60;;;;;;5089550;28;20838;-74
2023/12/30 10:43:27;;;;;;;2.17;1.00;;;23.70;68.50;;;;;;5089975;28;20420;-75
2023/12/30 10:45:58;;;;;;;1.23;0.73;;;22.60;68.80;;;;;;5088263;28;20256;-75
2023/12/30 10:48:29;;;;;;;1.47;0.80;;;22.50;70.80;;;;;;5090041;28;20285;-75
2023/12/30 10:50:57;;;;;;;1.40;0.77;;;22.00;69.80;;;;;;5089858;28;20398;-75
2023/12/30 10:53:25;;;;;;;1.20;0.80;;;22.00;70.80;;;;;;5089810;28;20421;-75
2023/12/30 10:55:55;;;;;;;2.70;0.80;;;21.70;71.00;;;;;;5089618;28;20438;-74
2023/12/30 10:58:24;;;;;;;3.67;1.13;;;21.90;70.00;;;;;;5089769;28;20417;-75
2023/12/30 11:01:02;;;;;;;3.07;1.10;;;20.50;69.60;;;;;;5089427;28;20416;-75
2023/12/30 11:03:31;;;;;;;2.90;1.17;;;19.20;74.70;;;;;;5087971;28;20460;-74
2023/12/30 11:05:56;;;;;;;2.13;1.23;;;18.00;78.10;;;;;;5088255;28;20437;-75
2023/12/30 11:08:22;;;;;;;2.83;0.90;;;17.30;83.20;;;;;;5089166;28;20463;-74
2023/12/30 11:10:50;;;;;;;1.40;1.10;;;16.90;87.60;;;;;;5088092;28;20181;-74
2023/12/30 11:13:19;;;;;;;2.03;0.93;;;16.70;90.30;;;;;;5089252;28;20174;-74
2023/12/30 11:15:45;;;;;;;2.50;1.17;;;16.20;91.20;;;;;;5087634;28;20446;-74
2023/12/30 11:18:14;;;;;;;3.10;0.90;;;16.10;93.60;;;;;;5087875;28;21265;-74
2023/12/30 11:20:47;;;;;;;2.90;1.00;;;15.80;94.40;;;;;;5088935;28;20192;-75
2023/12/30 11:23:14;;;;;;;1.93;0.90;;;16.10;94.90;;;;;;5087538;28;20426;-74
2023/12/30 11:25:43;;;;;;;1.60;0.97;;;16.50;94.60;;;;;;5087482;28;20443;-75
2023/12/30 11:28:22;;;;;;;3.00;1.13;;;17.20;91.20;;;;;;5087407;28;20847;-74
2023/12/30 11:30:58;;;;;;;3.70;1.10;;;17.20;90.20;;;;;;5087750;28;20471;-74
2023/12/30 11:33:24;;;;;;;3.73;1.40;;;17.40;91.10;;;;;;5088954;28;20458;-74
2023/12/30 11:35:52;;;;;;;1.20;0.90;;;17.60;90.30;;;;;;5087405;28;20458;-74
2023/12/30 11:38:19;;;;;;;2.93;1.00;;;18.20;90.90;;;;;;5089057;28;20235;-74
2023/12/30 11:40:53;;;;;;;2.33;0.97;;;19.00;88.40;;;;;;5088926;28;20421;-74
2023/12/30 11:43:22;;;;;;;5.07;1.00;;;19.60;84.80;;;;;;5089022;28;21145;-73
2023/12/30 11:45:48;;;;;;;1.10;0.90;;;19.90;82.00;;;;;;5089323;28;21250;-73
2023/12/30 11:48:14;;;;;;;1.93;0.90;;;20.30;80.20;;;;;;5088720;28;20535;-74
2023/12/30 11:50:41;;;;;;;5.13;1.00;;;20.50;79.10;;;;;;5088484;28;20409;-74
2023/12/30 11:53:07;;;;;;;1.83;1.00;;;20.60;79.20;;;;;;5087032;28;20442;-75
2023/12/30 11:55:33;;;;;;;2.23;0.90;;;20.30;78.00;;;;;;5088661;28;20420;-75
2023/12/30 11:57:59;;;;;;;1.20;0.70;;;20.00;79.50;;;;;;5088474;28;20987;-74
2023/12/30 12:00:26;;;;;;;5.33;0.77;;;19.60;79.80;;;;;;5088628;28;20507;-74
2023/12/30 12:02:52;;;;;;;3.77;0.57;;;19.20;81.00;;;;;;5088858;28;20261;-74
2023/12/30 12:05:18;;;;;;;1.37;0.73;;;18.70;80.30;;;;;;5088656;28;21217;-74
2023/12/30 12:07:44;;;;;;;1.10;0.50;;;17.90;81.60;;;;;;5088650;28;20422;-74
2023/12/30 12:10:10;;;;;;;0.90;0.60;;;18.00;85.80;;;;;;5087368;28;20420;-74
2023/12/30 12:12:42;;;;;;;2.03;0.70;;;17.60;85.20;;;;;;5087218;28;20219;-74
2023/12/30 12:15:08;;;;;;;1.00;0.73;;;17.20;87.20;;;;;;5088692;28;20973;-73
2023/12/30 12:17:35;;;;;;;1.20;0.93;;;16.90;89.20;;;;;;5086761;28;20490;-75
2023/12/30 12:20:04;;;;;;;5.83;0.60;;;16.10;89.30;;;;;;5088379;28;20442;-73
2023/12/30 12:22:30;;;;;;;1.57;0.90;;;15.80;91.10;;;;;;5087108;28;20415;-74
2023/12/30 12:24:56;;;;;;;2.57;0.80;;;15.70;92.90;;;;;;5086860;28;20857;-74
2023/12/30 12:27:22;;;;;;;1.47;0.70;;;15.40;93.90;;;;;;5088148;28;20194;-75
2023/12/30 12:29:53;;;;;;;1.67;0.80;;;15.10;95.00;;;;;;5087091;28;20212;-75
2023/12/30 12:32:21;;;;;;;2.87;0.73;;;14.20;96.40;;;;;;5088324;28;20459;-75
2023/12/30 12:34:50;;;;;;;1.07;0.80;;;14.10;99.00;;;;;;5088214;28;21312;-75
2023/12/30 12:37:16;;;;;;;1.30;0.80;;;14.00;99.90;;;;;;5088263;28;20440;-74
2023/12/30 12:39:43;;;;;;;0.80;0.50;;;13.80;99.90;;;;;;5088473;28;20413;-75
2023/12/30 12:42:14;;;;;;;1.43;0.63;;;13.40;99.90;;;;;;5088442;28;20420;-75
2023/12/30 12:44:40;;;;;;;1.57;0.50;;;13.50;99.90;;;;;;5088133;28;20446;-75
2023/12/30 12:47:06;;;;;;;0.90;0.50;;;13.50;99.90;;;;;;5088729;28;20493;-75